Time;durP1;ratioP1;P1;durP2;ratioP2;P2;SDS_P1;SDS_P2;PMS_P1;PMS_P2;Temp;Humidity;BMP_temperature;BMP_pressure;BME280_temperature;BME280_humidity;BME280_pressure;Samples;Min_cycle;Max_cycle;Signal;HPM_P1;HPM_P2
2023/08/05 06:14:46;;;;;;;8.17;3.77;;;;;;;18.24;80.20;100527.69;4866793;29;20769;-69
2023/08/05 06:21:47;;;;;;;8.37;4.63;;;;;;;18.45;78.82;100528.66;4778960;29;21478;-69
2023/08/05 06:35:48;;;;;;;7.20;4.10;;;;;;;18.68;78.00;100534.59;4833779;29;20218;-68
2023/08/05 06:39:42;;;;;;;9.37;4.40;;;;;;;18.76;77.83;100521.00;4776139;29;21376;-69
2023/08/05 06:42:54;;;;;;;7.80;4.30;;;;;;;18.82;77.83;100528.28;4752140;29;20361;-68
2023/08/05 06:49:26;;;;;;;7.90;4.20;;;;;;;18.95;77.53;100524.78;4817262;29;20281;-69
2023/08/05 07:12:15;;;;;;;11.13;5.37;;;;;;;19.20;76.09;100501.72;4683384;30;20316;-69
2023/08/05 07:15:22;;;;;;;11.57;5.97;;;;;;;19.26;75.44;100498.19;4796415;29;20242;-69
2023/08/05 07:18:53;;;;;;;;;;;;;;;;;;;;;
2023/08/05 07:22:22;;;;;;;10.37;5.60;;;;;;;19.39;75.54;100489.34;4764860;29;20733;-70
2023/08/05 07:32:18;;;;;;;8.10;5.27;;;;;;;19.53;74.30;100494.53;4796613;29;20213;-68
2023/08/05 07:35:14;;;;;;;6.67;4.50;;;;;;;19.58;72.97;100488.56;4837534;29;20238;-68
2023/08/05 07:38:04;;;;;;;;;;;;;;;;;;;;;
2023/08/05 07:40:43;;;;;;;7.40;4.00;;;;;;;19.68;72.69;100493.53;4853651;29;20246;-69
2023/08/05 07:43:35;;;;;;;15.00;5.57;;;;;;;19.73;73.79;100483.81;4852858;29;20219;-69
2023/08/05 07:46:24;;;;;;;9.43;4.83;;;;;;;19.77;72.91;100478.84;4853988;29;20219;-69
2023/08/05 07:49:17;;;;;;;11.20;5.10;;;;;;;19.71;72.00;100476.97;4854433;29;20636;-69
2023/08/05 07:51:53;;;;;;;7.87;4.07;;;;;;;19.64;71.91;100471.59;4852151;29;20287;-68
2023/08/05 07:58:45;;;;;;;6.70;4.00;;;;;;;19.86;73.14;100470.34;4810995;29;20214;-69
2023/08/05 08:01:38;;;;;;;8.10;3.77;;;;;;;19.78;71.69;100467.88;4837427;29;20222;-69
2023/08/05 08:04:55;;;;;;;9.00;3.90;;;;;;;19.94;71.02;100471.16;4853547;29;20215;-67
2023/08/05 08:08:08;;;;;;;5.23;3.40;;;;;;;20.02;69.91;100470.94;4840032;29;20249;-69
2023/08/05 08:26:02;;;;;;;6.27;3.50;;;;;;;20.29;69.50;100469.84;4834110;29;20228;-68
2023/08/05 08:28:52;;;;;;;6.17;2.73;;;;;;;20.51;69.58;100468.56;4840958;29;20218;-69
2023/08/05 08:35:12;;;;;;;4.43;2.83;;;;;;;20.81;68.69;100457.25;4813475;29;20255;-70
2023/08/05 09:19:30;;;;;;;3.22;2.10;;;;;;;22.47;56.82;100420.56;4694575;30;20252;-69
2023/08/05 09:41:15;;;;;;;4.82;1.80;;;;;;;23.29;55.34;100389.25;4695300;29;20388;-70
2023/08/05 09:44:32;;;;;;;4.18;1.70;;;;;;;23.33;55.84;100390.44;4757812;29;20221;-65
2023/08/05 09:47:10;;;;;;;4.35;1.83;;;;;;;23.35;54.90;100377.50;4869527;29;20250;-66
2023/08/05 09:49:49;;;;;;;5.07;1.90;;;;;;;23.52;54.09;100370.38;4872941;29;20218;-66
2023/08/05 09:52:18;;;;;;;3.60;1.63;;;;;;;23.75;52.76;100368.72;4871136;29;20210;-65
2023/08/05 09:54:58;;;;;;;4.25;2.30;;;;;;;23.99;52.79;100368.44;4869898;29;20241;-65
2023/08/05 10:04:37;;;;;;;4.50;2.08;;;;;;;24.23;51.69;100360.28;4873529;29;20212;-65
2023/08/05 10:07:07;;;;;;;3.95;2.03;;;;;;;24.30;52.69;100350.97;4872938;29;21071;-66
2023/08/05 10:09:40;;;;;;;4.28;1.80;;;;;;;24.50;51.00;100360.56;4873802;29;20903;-65
2023/08/05 10:12:13;;;;;;;3.78;2.00;;;;;;;24.40;50.27;100349.50;4871472;29;20218;-66
2023/08/05 10:14:44;;;;;;;2.85;1.70;;;;;;;24.22;52.38;100348.63;4869357;29;21234;-65
2023/08/05 10:17:18;;;;;;;3.83;2.58;;;;;;;24.03;51.36;100338.97;4869630;29;20214;-65
2023/08/05 10:20:19;;;;;;;5.25;2.10;;;;;;;23.71;53.42;100335.06;4869830;29;20215;-66
2023/08/05 10:23:02;;;;;;;7.85;2.22;;;;;;;23.70;53.94;100338.81;4870047;29;20218;-65
2023/08/05 10:28:50;;;;;;;3.60;2.10;;;;;;;24.34;49.85;100325.03;4872875;29;20273;-66
2023/08/05 10:31:31;;;;;;;4.70;1.92;;;;;;;24.44;50.13;100302.72;4844830;29;20297;-66
2023/08/05 10:34:33;;;;;;;5.10;2.30;;;;;;;24.65;49.76;100307.44;4872227;29;20221;-66
2023/08/05 10:37:01;;;;;;;3.03;2.00;;;;;;;24.67;50.61;100301.78;4837382;29;20850;-64
2023/08/05 10:40:08;;;;;;;3.60;1.77;;;;;;;24.76;50.12;100305.72;4868508;29;20340;-65
2023/08/05 10:42:39;;;;;;;4.07;2.22;;;;;;;24.82;49.44;100299.31;4865916;29;20328;-68
2023/08/05 10:45:27;;;;;;;3.22;1.80;;;;;;;24.96;49.75;100297.16;4862040;29;20211;-66
2023/08/05 10:47:57;;;;;;;4.00;2.10;;;;;;;24.87;50.77;100291.28;4848755;29;20713;-67
2023/08/05 10:50:36;;;;;;;5.70;2.20;;;;;;;24.84;49.92;100291.75;4850854;29;20999;-65
2023/08/05 10:53:22;;;;;;;7.47;2.30;;;;;;;24.57;50.05;100288.03;4835205;29;20214;-66
2023/08/05 10:56:12;;;;;;;5.38;1.95;;;;;;;24.37;51.40;100292.00;4851789;29;20330;-66
2023/08/05 10:58:47;;;;;;;5.85;1.80;;;;;;;24.45;51.79;100288.09;4849252;29;20210;-66
2023/08/05 11:01:22;;;;;;;4.22;1.98;;;;;;;24.61;50.74;100278.34;4850021;29;20215;-66
2023/08/05 11:03:56;;;;;;;3.28;1.75;;;;;;;25.14;49.46;100271.66;4850172;29;20827;-67
2023/08/05 11:13:24;;;;;;;4.78;1.90;;;;;;;25.50;47.57;100273.81;4764842;29;20243;-66
2023/08/05 11:16:19;;;;;;;;;;;;;;;;;;;;;
2023/08/05 11:19:09;;;;;;;3.22;2.03;;;;;;;25.92;46.33;100262.41;4850007;29;20528;-67
2023/08/05 11:21:39;;;;;;;3.83;1.83;;;;;;;25.52;47.74;100263.50;4853475;29;21039;-66
2023/08/05 11:24:09;;;;;;;5.47;1.70;;;;;;;25.02;47.96;100264.44;4850480;29;20298;-67
2023/08/05 11:26:46;;;;;;;3.33;1.55;;;;;;;24.65;49.87;100260.53;4852509;29;20206;-67
2023/08/05 11:33:54;;;;;;;3.78;2.25;;;;;;;23.85;52.43;100255.19;4741167;30;20342;-66
2023/08/05 11:36:31;;;;;;;5.43;2.35;;;;;;;23.71;53.30;100264.66;4851662;29;20257;-67
2023/08/05 11:40:04;;;;;;;3.67;1.73;;;;;;;23.57;52.35;100253.28;4827966;29;20227;-68
2023/08/05 11:43:20;;;;;;;6.03;2.30;;;;;;;23.34;53.39;100251.41;4698577;30;20609;-67
2023/08/05 11:50:13;;;;;;;4.50;2.03;;;;;;;23.87;54.14;100242.25;4750922;29;20358;-67
2023/08/05 12:00:29;;;;;;;3.90;2.00;;;;;;;24.08;50.69;100222.63;4653247;30;20765;-67
2023/08/05 12:14:28;;;;;;;4.43;1.80;;;;;;;23.55;52.19;100202.09;4651854;30;20241;-66
2023/08/05 12:17:02;;;;;;;3.25;1.95;;;;;;;23.76;51.45;100197.91;4657811;30;20780;-71
2023/08/05 12:19:39;;;;;;;4.55;2.20;;;;;;;23.74;51.28;100189.22;4707411;29;20218;-69
2023/08/05 12:25:43;;;;;;;3.75;1.83;;;;;;;23.85;49.69;100179.38;4816458;29;20310;-71
2023/08/05 12:28:12;;;;;;;3.10;1.63;;;;;;;23.81;49.53;100178.25;4825371;29;20699;-73
2023/08/05 12:30:42;;;;;;;3.85;1.77;;;;;;;23.70;50.53;100173.69;4825556;29;20328;-73
2023/08/05 12:33:17;;;;;;;2.88;1.80;;;;;;;23.67;51.25;100168.75;4835888;29;20231;-72
2023/08/05 12:35:45;;;;;;;3.75;1.80;;;;;;;23.65;50.99;100168.19;4857811;29;20298;-71
2023/08/05 12:38:13;;;;;;;3.10;1.60;;;;;;;23.47;51.62;100166.44;4855515;29;20326;-72
2023/08/05 12:40:42;;;;;;;3.40;1.60;;;;;;;23.38;51.78;100171.41;4858810;29;20222;-70
2023/08/05 12:43:12;;;;;;;3.03;1.75;;;;;;;23.32;52.29;100161.53;4856827;29;20621;-70
2023/08/05 12:45:41;;;;;;;3.60;1.75;;;;;;;23.25;52.89;100150.03;4857564;29;20312;-73
2023/08/05 12:48:10;;;;;;;3.75;1.85;;;;;;;23.33;53.09;100157.75;4856413;29;20218;-73
2023/08/05 12:50:38;;;;;;;3.28;1.92;;;;;;;23.34;52.51;100156.69;4856794;29;20230;-71
2023/08/05 12:53:06;;;;;;;3.42;1.70;;;;;;;23.36;51.90;100161.88;4856173;29;20249;-72
2023/08/05 12:55:35;;;;;;;4.35;2.03;;;;;;;23.27;52.65;100154.13;4855569;29;20222;-71
2023/08/05 12:58:03;;;;;;;4.93;2.22;;;;;;;23.28;53.35;100144.16;4854465;29;20215;-72
2023/08/05 13:00:36;;;;;;;3.47;2.08;;;;;;;23.32;54.20;100141.75;4854695;29;20218;-72
2023/08/05 13:03:32;;;;;;;3.92;2.00;;;;;;;23.50;52.68;100133.50;4855353;29;20218;-70
2023/08/05 13:06:04;;;;;;;2.78;1.70;;;;;;;23.54;52.54;100118.44;4855847;29;20426;-73
2023/08/05 13:08:33;;;;;;;3.50;1.98;;;;;;;23.66;53.00;100113.00;4858641;29;20238;-71
2023/08/05 13:11:28;;;;;;;5.18;1.90;;;;;;;23.85;51.42;100104.41;4856633;29;20302;-72
2023/08/05 13:13:56;;;;;;;3.17;1.67;;;;;;;23.90;50.80;100107.22;4857194;29;20207;-72
2023/08/05 13:16:27;;;;;;;3.33;1.58;;;;;;;23.96;50.42;100103.53;4857150;29;20243;-74
2023/08/05 13:18:57;;;;;;;1.77;1.33;;;;;;;23.99;50.70;100094.09;4857969;29;20219;-71
2023/08/05 13:22:01;;;;;;;5.38;1.67;;;;;;;24.03;51.74;100089.81;4857711;29;20218;-69
2023/08/05 13:24:44;;;;;;;2.88;1.80;;;;;;;23.86;50.89;100094.41;4847845;29;20243;-72
2023/08/05 13:27:26;;;;;;;2.53;1.65;;;;;;;24.05;50.95;100078.75;4857063;29;20253;-70
2023/08/05 13:29:54;;;;;;;4.65;1.80;;;;;;;24.13;51.92;100081.03;4857380;29;20217;-70
2023/08/05 13:32:23;;;;;;;2.72;1.40;;;;;;;24.28;50.56;100075.88;4857126;29;20222;-71
2023/08/05 13:34:52;;;;;;;3.30;1.88;;;;;;;24.42;49.48;100082.63;4856143;29;20311;-73
2023/08/05 13:37:20;;;;;;;3.15;1.67;;;;;;;24.55;49.10;100073.31;4857424;29;20317;-73
2023/08/05 13:39:56;;;;;;;2.85;1.75;;;;;;;24.64;49.01;100063.69;4854920;29;20215;-71
2023/08/05 13:42:23;;;;;;;2.15;1.58;;;;;;;24.54;50.29;100058.16;4855490;29;20211;-69
2023/08/05 13:44:53;;;;;;;5.10;1.83;;;;;;;24.46;49.48;100055.84;4854296;29;20282;-72
2023/08/05 13:47:21;;;;;;;4.97;1.77;;;;;;;24.45;48.93;100051.50;4856297;29;20202;-69
2023/08/05 13:49:52;;;;;;;2.38;1.40;;;;;;;24.50;47.75;100040.72;4856314;29;20207;-69
2023/08/05 13:52:20;;;;;;;2.38;1.60;;;;;;;24.54;47.92;100039.19;4856031;29;20779;-71
2023/08/05 13:54:48;;;;;;;3.85;1.63;;;;;;;24.53;49.51;100034.81;4856108;29;20721;-71
2023/08/05 13:57:16;;;;;;;2.95;1.50;;;;;;;24.63;48.02;100033.03;4854463;29;20253;-69
2023/08/05 13:59:44;;;;;;;2.85;1.45;;;;;;;24.56;48.20;100023.47;4856991;29;20753;-70
2023/08/05 14:02:12;;;;;;;3.78;1.88;;;;;;;24.46;49.30;100028.75;4854492;29;20222;-70
2023/08/05 14:04:44;;;;;;;6.07;1.70;;;;;;;24.52;48.36;100017.75;4852933;29;20242;-72
2023/08/05 14:07:13;;;;;;;3.08;1.25;;;;;;;24.58;47.83;100014.03;4856004;29;20239;-72
2023/08/05 14:09:41;;;;;;;3.55;1.45;;;;;;;24.51;47.94;100009.84;4857404;29;20262;-72
2023/08/05 14:12:13;;;;;;;2.45;1.50;;;;;;;24.44;46.70;100017.34;4855687;29;20223;-72
2023/08/05 14:14:41;;;;;;;2.88;1.45;;;;;;;24.25;47.33;100006.78;4856387;29;20297;-70
2023/08/05 14:17:10;;;;;;;4.20;1.65;;;;;;;24.11;47.56;100002.72;4855716;29;20274;-69
2023/08/05 14:19:38;;;;;;;4.95;1.63;;;;;;;24.10;47.51;100005.72;4855987;29;20230;-71
2023/08/05 14:22:09;;;;;;;2.97;1.77;;;;;;;24.08;47.96;100000.53;4854674;29;20219;-71
2023/08/05 14:24:39;;;;;;;2.33;1.40;;;;;;;24.08;47.79;99997.00;4855081;29;20725;-72
2023/08/05 14:27:08;;;;;;;3.15;1.55;;;;;;;24.01;48.28;99989.06;4855215;29;20266;-73
2023/08/05 14:29:51;;;;;;;3.40;1.33;;;;;;;24.19;47.10;99990.66;4845231;29;20230;-73
2023/08/05 14:32:32;;;;;;;6.28;1.80;;;;;;;24.05;48.04;99992.06;4853327;29;20218;-72
2023/08/05 14:35:05;;;;;;;4.38;1.85;;;;;;;24.06;47.29;99986.41;4854872;29;20227;-71
2023/08/05 14:37:35;;;;;;;4.40;1.90;;;;;;;23.88;47.83;99982.09;4854316;29;20720;-69
2023/08/05 14:40:13;;;;;;;6.75;1.70;;;;;;;23.83;47.71;99986.59;4855958;29;20214;-72
2023/08/05 14:42:41;;;;;;;2.63;1.50;;;;;;;23.71;47.74;99983.97;4855380;29;20210;-65
2023/08/05 14:45:11;;;;;;;4.03;1.95;;;;;;;23.55;48.36;99974.78;4856561;29;20238;-65
2023/08/05 14:47:40;;;;;;;3.08;1.70;;;;;;;23.55;48.50;99979.38;4854932;29;20222;-66
2023/08/05 14:50:15;;;;;;;5.82;3.72;;;;;;;23.50;48.70;99977.38;4854845;29;20211;-65
2023/08/05 14:53:01;;;;;;;5.30;1.88;;;;;;;23.58;48.76;99973.44;4853424;29;20222;-65
2023/08/05 14:55:56;;;;;;;3.35;1.67;;;;;;;23.69;48.54;99975.28;4842633;29;20295;-65
2023/08/05 14:58:25;;;;;;;3.90;1.40;;;;;;;23.75;48.03;99957.25;4854787;29;20219;-68
2023/08/05 15:01:05;;;;;;;4.30;1.85;;;;;;;23.85;47.02;99952.78;4854858;29;20211;-66
2023/08/05 15:03:41;;;;;;;3.22;1.83;;;;;;;23.86;46.67;99942.78;4854400;29;20317;-65
2023/08/05 15:06:13;;;;;;;3.08;1.63;;;;;;;23.81;47.09;99945.41;4855945;29;20242;-65
2023/08/05 15:08:41;;;;;;;2.28;1.38;;;;;;;23.81;47.38;99948.13;4853577;29;20243;-65
2023/08/05 15:11:15;;;;;;;3.78;1.60;;;;;;;23.72;47.40;99941.47;4853188;29;20215;-65
2023/08/05 15:13:48;;;;;;;2.40;1.48;;;;;;;23.69;47.33;99945.50;4854107;29;20225;-67
2023/08/05 15:16:18;;;;;;;3.08;1.85;;;;;;;23.73;46.98;99943.94;4854014;29;20635;-65
2023/08/05 15:18:46;;;;;;;1.70;1.30;;;;;;;23.71;47.06;99939.84;4854110;29;20326;-65
2023/08/05 15:21:24;;;;;;;3.92;1.35;;;;;;;23.56;47.83;99929.59;4855186;29;20222;-66
2023/08/05 15:23:54;;;;;;;2.85;1.63;;;;;;;23.54;48.13;99929.84;4854600;29;20217;-66
2023/08/05 15:29:33;;;;;;;2.05;1.27;;;;;;;23.70;46.81;99927.38;4850895;29;20218;-66
2023/08/05 15:32:01;;;;;;;2.33;1.48;;;;;;;23.76;46.73;99919.06;4854086;29;20225;-65
2023/08/05 15:34:31;;;;;;;3.08;1.60;;;;;;;23.80;47.14;99916.69;4854525;29;20684;-66
2023/08/05 15:37:00;;;;;;;2.95;1.45;;;;;;;23.75;46.76;99919.34;4854353;29;20298;-66
2023/08/05 15:39:29;;;;;;;2.20;1.58;;;;;;;23.84;45.40;99913.25;4854382;29;20242;-66
2023/08/05 15:42:17;;;;;;;2.97;1.75;;;;;;;23.75;46.13;99919.34;4854385;29;20581;-65
2023/08/05 15:44:46;;;;;;;2.97;1.92;;;;;;;23.62;46.36;99915.91;4852985;29;20215;-65
2023/08/05 15:47:17;;;;;;;4.40;1.88;;;;;;;23.53;46.69;99922.78;4851913;29;20226;-66
2023/08/05 15:49:49;;;;;;;3.15;1.98;;;;;;;23.47;46.85;99923.75;4853272;29;20219;-65
2023/08/05 15:52:26;;;;;;;3.38;1.60;;;;;;;23.41;46.94;99923.88;4854666;29;20236;-66
2023/08/05 15:54:55;;;;;;;3.15;1.83;;;;;;;23.36;47.14;99915.69;4853499;29;20241;-65
2023/08/05 15:57:36;;;;;;;4.90;2.13;;;;;;;23.28;47.30;99914.22;4853070;29;20235;-65
2023/08/05 16:00:14;;;;;;;2.65;1.70;;;;;;;23.23;47.48;99901.41;4853748;29;20215;-65
2023/08/05 16:06:59;;;;;;;3.03;1.50;;;;;;;23.13;48.06;99908.56;4776364;29;20294;-65
2023/08/05 16:17:16;;;;;;;5.38;1.60;;;;;;;22.99;49.30;99909.91;4703885;30;20285;-65
2023/08/05 16:19:51;;;;;;;4.60;2.20;;;;;;;22.96;49.33;99910.38;4702586;30;20224;-66
2023/08/05 16:22:20;;;;;;;8.27;4.50;;;;;;;22.93;49.86;99905.47;4768588;29;20225;-66
2023/08/05 16:24:57;;;;;;;6.45;3.80;;;;;;;22.87;50.54;99899.94;4838592;29;20227;-65
2023/08/05 16:27:29;;;;;;;4.13;1.85;;;;;;;22.80;50.97;99896.59;4853241;29;20226;-65
2023/08/05 16:30:01;;;;;;;6.75;2.33;;;;;;;22.79;51.21;99894.94;4854206;29;20211;-66
2023/08/05 16:32:33;;;;;;;5.10;1.70;;;;;;;22.75;51.37;99904.59;4854487;29;20684;-66
2023/08/05 16:35:02;;;;;;;3.25;1.70;;;;;;;22.73;51.33;99906.69;4853853;29;20313;-67
2023/08/05 16:37:33;;;;;;;4.30;1.73;;;;;;;22.68;51.91;99909.31;4854618;29;20311;-67
2023/08/05 16:40:07;;;;;;;3.88;1.92;;;;;;;22.66;52.23;99918.72;4854186;29;20223;-65
2023/08/05 16:42:36;;;;;;;2.28;1.55;;;;;;;22.61;52.39;99922.13;4853596;29;20285;-66
2023/08/05 16:45:14;;;;;;;2.67;1.80;;;;;;;22.57;53.56;99923.66;4852913;29;20222;-66
2023/08/05 16:47:47;;;;;;;3.25;1.70;;;;;;;22.55;55.79;99925.78;4854268;29;20824;-65
2023/08/05 16:50:39;;;;;;;3.75;1.63;;;;;;;22.44;57.20;99935.56;4852897;29;20971;-65
2023/08/05 16:53:40;;;;;;;2.63;1.95;;;;;;;22.32;59.21;99936.66;4847974;29;20246;-66
2023/08/05 16:56:08;;;;;;;3.60;2.30;;;;;;;22.13;62.87;99944.06;4813286;29;20222;-66
2023/08/05 16:58:53;;;;;;;4.43;2.45;;;;;;;21.97;64.78;99948.31;4854512;29;20241;-66
2023/08/05 17:01:27;;;;;;;8.70;3.08;;;;;;;21.78;66.64;99941.34;4856871;29;20227;-66
2023/08/05 17:04:43;;;;;;;6.90;3.00;;;;;;;21.57;70.65;99944.59;4855154;29;20206;-66
2023/08/05 17:59:21;;;;;;;6.97;4.77;;;;;;;20.41;86.01;99905.34;4759992;29;20322;-65
2023/08/05 18:27:52;;;;;;;11.87;4.27;;;;;;;20.11;90.68;99897.19;4784215;29;20228;-66
2023/08/05 18:30:42;;;;;;;6.20;3.80;;;;;;;20.14;87.94;99885.16;4796291;29;20768;-63
2023/08/05 18:34:04;;;;;;;;;;;;;;;;;;;;;
2023/08/05 18:47:24;;;;;;;;;;;;;;;;;;;;;
2023/08/05 18:57:20;;;;;;;7.57;4.07;;;;;;;19.96;88.47;99893.22;4748948;30;20215;-65
2023/08/05 20:39:19;;;;;;;8.00;4.07;;;;;;;19.27;91.92;99843.13;4753711;29;21067;-65
2023/08/05 20:58:02;;;;;;;4.87;3.53;;;;;;;19.23;89.67;99818.56;4666350;30;20234;-65
2023/08/05 21:12:42;;;;;;;5.13;3.63;;;;;;;19.10;90.92;99807.91;4826894;29;20234;-66
2023/08/05 21:23:17;;;;;;;7.60;4.13;;;;;;;19.19;89.05;99787.78;4817496;29;20231;-66
2023/08/05 21:26:22;;;;;;;6.80;4.37;;;;;;;19.10;88.80;99792.63;4792223;29;20216;-66
2023/08/05 21:29:35;;;;;;;5.23;3.63;;;;;;;19.05;87.83;99781.72;4792494;29;20354;-65
2023/08/05 21:46:30;;;;;;;4.50;3.67;;;;;;;18.98;87.52;99764.84;4694399;30;20771;-66
2023/08/05 21:55:28;;;;;;;8.47;3.90;;;;;;;18.90;86.98;99765.13;4856486;29;20287;-65
2023/08/05 21:58:00;;;;;;;5.43;3.50;;;;;;;18.93;86.35;99770.03;4856656;29;20782;-64
2023/08/05 22:00:43;;;;;;;7.53;3.67;;;;;;;18.89;86.39;99770.69;4855705;29;20776;-64
2023/08/05 22:04:10;;;;;;;6.37;3.70;;;;;;;18.85;86.97;99766.78;4873304;29;20214;-64
2023/08/05 22:06:50;;;;;;;6.77;4.17;;;;;;;18.86;86.14;99769.28;4891890;29;20225;-65
2023/08/05 22:09:36;;;;;;;7.73;4.10;;;;;;;18.87;85.95;99760.19;4891293;29;20307;-65
2023/08/05 22:12:24;;;;;;;6.50;4.43;;;;;;;18.86;87.09;99774.66;4890525;29;20210;-64
2023/08/05 22:15:13;;;;;;;5.47;3.63;;;;;;;18.85;86.09;99762.25;4891565;29;20229;-64
2023/08/05 22:17:47;;;;;;;6.57;3.63;;;;;;;18.83;86.75;99771.56;4894478;29;20210;-64
2023/08/05 22:20:18;;;;;;;7.60;3.73;;;;;;;18.83;87.28;99775.06;4892509;29;20228;-64
2023/08/05 22:22:50;;;;;;;6.33;3.67;;;;;;;18.81;87.35;99761.06;4892589;29;20213;-64
2023/08/05 22:25:24;;;;;;;11.77;3.83;;;;;;;18.81;87.11;99757.56;4893474;29;20220;-65
2023/08/05 22:28:05;;;;;;;7.30;3.90;;;;;;;18.84;86.88;99765.97;4891358;29;20266;-66
2023/08/05 22:30:34;;;;;;;8.23;3.90;;;;;;;18.78;86.38;99767.69;4891570;29;20210;-65
2023/08/05 22:33:03;;;;;;;5.67;3.80;;;;;;;18.67;86.88;99759.50;4888935;29;20213;-66
